UAL3547 KORD-KEWR
Flight info
| Callsign | UAL3547 |
|---|---|
| Flight time | 2h 23m |
| Altitude | 35000 |
| Route | DUFEE ELX HAAKK DOXXY SOSIC KEEHO J584 SLT FQM3 |
| Aircraft | B739/M-SDE2E3FGHIRWXY/LB1 |
Departure
| Time | 2026-04-23 20:39 |
|---|---|
| Airport | Chicago O'Hare International Airport (KORD) |
Arrival
| Time | 2026-04-23 23:03 |
|---|---|
| Airport | Newark Liberty International Airport (KEWR) |
| Time | Latitude | Longitude | Altitude | Speed | Heading |
|---|---|---|---|---|---|
| 2026-04-23 19:59 | 41.97353 | -87.89084 | 661 ft | 0 kts | 359° |
| 2026-04-23 20:17 | 41.97346 | -87.89084 | 661 ft | 0 kts | 359° |
| 2026-04-23 20:17 | 41.97326 | -87.89085 | 661 ft | 0 kts | 5° |
| 2026-04-23 20:17 | 41.97307 | -87.89088 | 660 ft | 3 kts | 13° |
| 2026-04-23 20:18 | 41.97287 | -87.89096 | 660 ft | 3 kts | 29° |
| 2026-04-23 20:18 | 41.97273 | -87.89112 | 661 ft | 3 kts | 62° |
| 2026-04-23 20:18 | 41.97269 | -87.89126 | 662 ft | 1 kts | 89° |
| 2026-04-23 20:27 | 41.97270 | -87.89106 | 661 ft | 7 kts | 89° |
| 2026-04-23 20:27 | 41.97270 | -87.89024 | 660 ft | 1 kts | 90° |
| 2026-04-23 20:27 | 41.97270 | -87.88997 | 659 ft | 4 kts | 90° |
| 2026-04-23 20:28 | 41.97253 | -87.88944 | 659 ft | 9 kts | 140° |
| 2026-04-23 20:28 | 41.97205 | -87.88904 | 659 ft | 9 kts | 118° |
| 2026-04-23 20:28 | 41.97197 | -87.88802 | 658 ft | 1 kts | 90° |
| 2026-04-23 20:28 | 41.97197 | -87.88777 | 658 ft | 7 kts | 90° |
| 2026-04-23 20:29 | 41.97197 | -87.88682 | 657 ft | 12 kts | 90° |
| 2026-04-23 20:29 | 41.97196 | -87.88556 | 658 ft | 12 kts | 90° |
| 2026-04-23 20:29 | 41.97180 | -87.88472 | 659 ft | 10 kts | 129° |
| 2026-04-23 20:29 | 41.97119 | -87.88445 | 659 ft | 11 kts | 176° |
| 2026-04-23 20:30 | 41.97053 | -87.88437 | 658 ft | 8 kts | 156° |
| 2026-04-23 20:30 | 41.97043 | -87.88294 | 660 ft | 11 kts | 80° |
| 2026-04-23 20:30 | 41.97046 | -87.88179 | 663 ft | 12 kts | 91° |
| 2026-04-23 20:31 | 41.97045 | -87.88121 | 665 ft | 0 kts | 91° |
| 2026-04-23 20:37 | 41.97045 | -87.88120 | 665 ft | 1 kts | 91° |
| 2026-04-23 20:37 | 41.97044 | -87.88099 | 665 ft | 3 kts | 98° |
| 2026-04-23 20:37 | 41.97034 | -87.88069 | 665 ft | 4 kts | 122° |
| 2026-04-23 20:38 | 41.97010 | -87.88042 | 667 ft | 5 kts | 153° |
| 2026-04-23 20:38 | 41.96967 | -87.88034 | 665 ft | 7 kts | 183° |
| 2026-04-23 20:38 | 41.96917 | -87.88067 | 667 ft | 9 kts | 218° |
| 2026-04-23 20:38 | 41.96850 | -87.88145 | 664 ft | 29 kts | 221° |
| 2026-04-23 20:39 | 41.96508 | -87.88551 | 664 ft | 101 kts | 221° |
| 2026-04-23 20:39 | 41.95813 | -87.89341 | 666 ft | 158 kts | 216° |
| 2026-04-23 20:39 | 41.94855 | -87.90220 | 1257 ft | 164 kts | 213° |
| 2026-04-23 20:39 | 41.93977 | -87.91147 | 2238 ft | 158 kts | 217° |
| 2026-04-23 20:40 | 41.93122 | -87.92133 | 2938 ft | 167 kts | 219° |
| 2026-04-23 20:40 | 41.92290 | -87.93265 | 3410 ft | 176 kts | 224° |
| 2026-04-23 20:40 | 41.91472 | -87.94549 | 3802 ft | 189 kts | 229° |
| 2026-04-23 20:40 | 41.91073 | -87.96350 | 3925 ft | 224 kts | 271° |
| 2026-04-23 20:41 | 41.91766 | -87.98322 | 4265 ft | 256 kts | 310° |
| 2026-04-23 20:41 | 41.93300 | -87.99453 | 4758 ft | 271 kts | 347° |
| 2026-04-23 20:41 | 41.95156 | -87.99238 | 5339 ft | 271 kts | 24° |
| 2026-04-23 20:41 | 41.96623 | -87.97696 | 5788 ft | 271 kts | 60° |
| 2026-04-23 20:42 | 41.97186 | -87.95359 | 6239 ft | 264 kts | 95° |
| 2026-04-23 20:42 | 41.97013 | -87.92892 | 6760 ft | 263 kts | 101° |
| 2026-04-23 20:42 | 41.96870 | -87.90447 | 7252 ft | 268 kts | 97° |
| 2026-04-23 20:42 | 41.96865 | -87.87930 | 7804 ft | 271 kts | 92° |
| 2026-04-23 20:43 | 41.96991 | -87.85428 | 8297 ft | 275 kts | 88° |
| 2026-04-23 20:43 | 41.97226 | -87.82867 | 8848 ft | 278 kts | 85° |
| 2026-04-23 20:43 | 41.97544 | -87.80289 | 9367 ft | 281 kts | 83° |
| 2026-04-23 20:43 | 41.97923 | -87.77684 | 9834 ft | 285 kts | 81° |
| 2026-04-23 20:44 | 41.98330 | -87.75155 | 9855 ft | 283 kts | 80° |
| 2026-04-23 20:44 | 41.98776 | -87.72560 | 9885 ft | 284 kts | 79° |
| 2026-04-23 20:44 | 41.99234 | -87.69992 | 9888 ft | 285 kts | 79° |
| 2026-04-23 20:44 | 41.99707 | -87.67411 | 9842 ft | 282 kts | 78° |
| 2026-04-23 20:45 | 42.00163 | -87.64963 | 9882 ft | 279 kts | 78° |
| 2026-04-23 20:45 | 42.00624 | -87.62506 | 9883 ft | 282 kts | 78° |
| 2026-04-23 20:45 | 42.01107 | -87.59943 | 9901 ft | 285 kts | 78° |
| 2026-04-23 20:45 | 42.01601 | -87.57337 | 9888 ft | 285 kts | 78° |
| 2026-04-23 20:46 | 42.02092 | -87.54749 | 9886 ft | 283 kts | 78° |
| 2026-04-23 20:46 | 42.02567 | -87.52244 | 9881 ft | 282 kts | 78° |
| 2026-04-23 20:46 | 42.03046 | -87.49719 | 9884 ft | 281 kts | 78° |
| 2026-04-23 20:46 | 42.03531 | -87.47162 | 9882 ft | 280 kts | 78° |
| 2026-04-23 20:47 | 42.04011 | -87.44632 | 9885 ft | 280 kts | 78° |
| 2026-04-23 20:47 | 42.04491 | -87.42092 | 9889 ft | 280 kts | 78° |
| 2026-04-23 20:47 | 42.04970 | -87.39559 | 9891 ft | 281 kts | 78° |
| 2026-04-23 20:47 | 42.05454 | -87.36994 | 9895 ft | 281 kts | 78° |
| 2026-04-23 20:48 | 42.05935 | -87.34445 | 9891 ft | 282 kts | 78° |
| 2026-04-23 20:48 | 42.06418 | -87.31880 | 10103 ft | 280 kts | 78° |
| 2026-04-23 20:48 | 42.06897 | -87.29331 | 10386 ft | 284 kts | 78° |
| 2026-04-23 20:48 | 42.07383 | -87.26739 | 10729 ft | 286 kts | 78° |
| 2026-04-23 20:49 | 42.07867 | -87.24159 | 11090 ft | 287 kts | 78° |
| 2026-04-23 20:49 | 42.08359 | -87.21534 | 11440 ft | 288 kts | 78° |
| 2026-04-23 20:49 | 42.08852 | -87.18900 | 11797 ft | 289 kts | 77° |
| 2026-04-23 20:49 | 42.09342 | -87.16279 | 12143 ft | 291 kts | 77° |
| 2026-04-23 20:50 | 42.09837 | -87.13629 | 12489 ft | 292 kts | 77° |
| 2026-04-23 20:50 | 42.10326 | -87.11003 | 12834 ft | 294 kts | 77° |
| 2026-04-23 20:50 | 42.10825 | -87.08324 | 13172 ft | 295 kts | 77° |
| 2026-04-23 20:50 | 42.11251 | -87.05623 | 13504 ft | 296 kts | 85° |
| 2026-04-23 20:51 | 42.11396 | -87.02879 | 13811 ft | 297 kts | 89° |
| 2026-04-23 20:51 | 42.11493 | -87.00061 | 14095 ft | 299 kts | 89° |
| 2026-04-23 20:51 | 42.11582 | -86.97227 | 14184 ft | 313 kts | 89° |
| 2026-04-23 20:51 | 42.11678 | -86.94230 | 14314 ft | 326 kts | 89° |
| 2026-04-23 20:52 | 42.11782 | -86.91103 | 14430 ft | 340 kts | 89° |
| 2026-04-23 20:52 | 42.11892 | -86.87871 | 14545 ft | 354 kts | 89° |
| 2026-04-23 20:52 | 42.12010 | -86.84480 | 14651 ft | 367 kts | 88° |
| 2026-04-23 20:52 | 42.12133 | -86.80995 | 14764 ft | 381 kts | 88° |
| 2026-04-23 20:53 | 42.12261 | -86.77384 | 14873 ft | 393 kts | 88° |
| 2026-04-23 20:53 | 42.12393 | -86.73654 | 15044 ft | 403 kts | 88° |
| 2026-04-23 20:53 | 42.12526 | -86.69896 | 15388 ft | 406 kts | 88° |
| 2026-04-23 20:53 | 42.12659 | -86.66119 | 15822 ft | 407 kts | 88° |
| 2026-04-23 20:54 | 42.12792 | -86.62278 | 16243 ft | 409 kts | 89° |
| 2026-04-23 20:54 | 42.12923 | -86.58442 | 16616 ft | 412 kts | 89° |
| 2026-04-23 20:54 | 42.13054 | -86.54571 | 16989 ft | 415 kts | 89° |
| 2026-04-23 20:54 | 42.13184 | -86.50688 | 17365 ft | 417 kts | 89° |
| 2026-04-23 20:55 | 42.13314 | -86.46770 | 17733 ft | 419 kts | 89° |
| 2026-04-23 20:55 | 42.13443 | -86.42857 | 18080 ft | 422 kts | 89° |
| 2026-04-23 20:55 | 42.13572 | -86.38885 | 18399 ft | 424 kts | 89° |
| 2026-04-23 20:55 | 42.13700 | -86.34892 | 18712 ft | 426 kts | 89° |
| 2026-04-23 20:56 | 42.13826 | -86.30938 | 19004 ft | 429 kts | 89° |
| 2026-04-23 20:56 | 42.13953 | -86.26876 | 19314 ft | 431 kts | 89° |
| 2026-04-23 20:56 | 42.14079 | -86.22816 | 19612 ft | 434 kts | 89° |
| 2026-04-23 20:56 | 42.14204 | -86.18795 | 19911 ft | 436 kts | 89° |
| 2026-04-23 20:57 | 42.14330 | -86.14652 | 20229 ft | 438 kts | 89° |
| 2026-04-23 20:57 | 42.14442 | -86.10587 | 20541 ft | 440 kts | 90° |
| 2026-04-23 20:57 | 42.14465 | -86.06450 | 20842 ft | 442 kts | 91° |
| 2026-04-23 20:57 | 42.14428 | -86.02257 | 21125 ft | 444 kts | 92° |
| 2026-04-23 20:58 | 42.14373 | -85.98127 | 21423 ft | 447 kts | 92° |
| 2026-04-23 20:58 | 42.14317 | -85.93941 | 21721 ft | 449 kts | 92° |
| 2026-04-23 20:58 | 42.14268 | -85.89710 | 22022 ft | 451 kts | 92° |
| 2026-04-23 20:58 | 42.14226 | -85.85527 | 22300 ft | 453 kts | 92° |
| 2026-04-23 20:59 | 42.14188 | -85.81267 | 22583 ft | 455 kts | 92° |
| 2026-04-23 20:59 | 42.14151 | -85.76991 | 22853 ft | 457 kts | 91° |
| 2026-04-23 20:59 | 42.14115 | -85.72730 | 23118 ft | 459 kts | 91° |
| 2026-04-23 20:59 | 42.14077 | -85.68393 | 23401 ft | 461 kts | 92° |
| 2026-04-23 21:00 | 42.14038 | -85.64052 | 23624 ft | 463 kts | 92° |
| 2026-04-23 21:00 | 42.13996 | -85.59751 | 23836 ft | 465 kts | 92° |
| 2026-04-23 21:00 | 42.13952 | -85.55308 | 24055 ft | 467 kts | 92° |
| 2026-04-23 21:00 | 42.13906 | -85.50963 | 24269 ft | 469 kts | 92° |
| 2026-04-23 21:01 | 42.13858 | -85.46577 | 24481 ft | 471 kts | 92° |
| 2026-04-23 21:01 | 42.13808 | -85.42105 | 24673 ft | 474 kts | 92° |
| 2026-04-23 21:01 | 42.13756 | -85.37650 | 24891 ft | 475 kts | 92° |
| 2026-04-23 21:01 | 42.13703 | -85.33200 | 25119 ft | 477 kts | 91° |
| 2026-04-23 21:02 | 42.13647 | -85.28719 | 25328 ft | 479 kts | 92° |
| 2026-04-23 21:02 | 42.13590 | -85.24232 | 25550 ft | 480 kts | 91° |
| 2026-04-23 21:02 | 42.13532 | -85.19792 | 25758 ft | 482 kts | 91° |
| 2026-04-23 21:02 | 42.13469 | -85.15193 | 25952 ft | 484 kts | 91° |
| 2026-04-23 21:03 | 42.13407 | -85.10709 | 26140 ft | 486 kts | 91° |
| 2026-04-23 21:03 | 42.13343 | -85.06193 | 26329 ft | 488 kts | 91° |
| 2026-04-23 21:03 | 42.13275 | -85.01569 | 26531 ft | 490 kts | 91° |
| 2026-04-23 21:03 | 42.13203 | -84.97002 | 26710 ft | 492 kts | 91° |
| 2026-04-23 21:04 | 42.13127 | -84.92394 | 26877 ft | 494 kts | 92° |
| 2026-04-23 21:04 | 42.13048 | -84.87736 | 27063 ft | 495 kts | 91° |
| 2026-04-23 21:04 | 42.12969 | -84.83105 | 27256 ft | 497 kts | 91° |
| 2026-04-23 21:04 | 42.12888 | -84.78445 | 27439 ft | 498 kts | 91° |
| 2026-04-23 21:05 | 42.12803 | -84.73707 | 27662 ft | 499 kts | 91° |
| 2026-04-23 21:05 | 42.12719 | -84.69084 | 27924 ft | 498 kts | 91° |
| 2026-04-23 21:05 | 42.12632 | -84.64425 | 28190 ft | 498 kts | 91° |
| 2026-04-23 21:05 | 42.12545 | -84.59786 | 28429 ft | 498 kts | 91° |
| 2026-04-23 21:06 | 42.12454 | -84.55100 | 28649 ft | 499 kts | 91° |
| 2026-04-23 21:06 | 42.12362 | -84.50427 | 28902 ft | 499 kts | 91° |
| 2026-04-23 21:06 | 42.12401 | -84.45829 | 29139 ft | 499 kts | 84° |
| 2026-04-23 21:06 | 42.12838 | -84.41194 | 29376 ft | 498 kts | 80° |
| 2026-04-23 21:07 | 42.13379 | -84.36590 | 29626 ft | 498 kts | 79° |
| 2026-04-23 21:07 | 42.13942 | -84.32020 | 29879 ft | 498 kts | 79° |
| 2026-04-23 21:07 | 42.14505 | -84.27398 | 30103 ft | 498 kts | 79° |
| 2026-04-23 21:07 | 42.15046 | -84.22813 | 30318 ft | 497 kts | 80° |
| 2026-04-23 21:08 | 42.15574 | -84.18188 | 30549 ft | 496 kts | 80° |
| 2026-04-23 21:08 | 42.16084 | -84.13612 | 30776 ft | 495 kts | 80° |
| 2026-04-23 21:08 | 42.16585 | -84.09053 | 30972 ft | 495 kts | 80° |
| 2026-04-23 21:08 | 42.17086 | -84.04459 | 31153 ft | 495 kts | 80° |
| 2026-04-23 21:09 | 42.17583 | -83.99885 | 31352 ft | 494 kts | 80° |
| 2026-04-23 21:09 | 42.18082 | -83.95279 | 31570 ft | 493 kts | 80° |
| 2026-04-23 21:09 | 42.18579 | -83.90689 | 31738 ft | 493 kts | 80° |
| 2026-04-23 21:09 | 42.19071 | -83.86131 | 31914 ft | 493 kts | 80° |
| 2026-04-23 21:10 | 42.19565 | -83.81543 | 32112 ft | 492 kts | 80° |
| 2026-04-23 21:10 | 42.20052 | -83.76999 | 32281 ft | 491 kts | 80° |
| 2026-04-23 21:10 | 42.20539 | -83.72434 | 32442 ft | 491 kts | 80° |
| 2026-04-23 21:10 | 42.21025 | -83.67864 | 32613 ft | 490 kts | 80° |
| 2026-04-23 21:11 | 42.21508 | -83.63305 | 32780 ft | 490 kts | 80° |
| 2026-04-23 21:11 | 42.21981 | -83.58825 | 32941 ft | 490 kts | 80° |
| 2026-04-23 21:11 | 42.22462 | -83.54224 | 33089 ft | 489 kts | 81° |
| 2026-04-23 21:11 | 42.22658 | -83.49645 | 33202 ft | 491 kts | 90° |
| 2026-04-23 21:12 | 42.22379 | -83.45121 | 33317 ft | 492 kts | 100° |
| 2026-04-23 21:12 | 42.21631 | -83.40610 | 33443 ft | 492 kts | 103° |
| 2026-04-23 21:12 | 42.20788 | -83.36131 | 33578 ft | 492 kts | 104° |
| 2026-04-23 21:12 | 42.19929 | -83.31670 | 33664 ft | 492 kts | 104° |
| 2026-04-23 21:13 | 42.19072 | -83.27197 | 33790 ft | 492 kts | 104° |
| 2026-04-23 21:13 | 42.18227 | -83.22724 | 33919 ft | 492 kts | 103° |
| 2026-04-23 21:13 | 42.16850 | -83.15300 | 34095 ft | 491 kts | 103° |
| 2026-04-23 21:14 | 42.14944 | -83.04911 | 34317 ft | 491 kts | 103° |
| 2026-04-23 21:14 | 42.14119 | -83.00425 | 34421 ft | 491 kts | 103° |
| 2026-04-23 21:14 | 42.13298 | -82.95970 | 34490 ft | 491 kts | 103° |
| 2026-04-23 21:15 | 42.11649 | -82.87066 | 34656 ft | 490 kts | 103° |
| 2026-04-23 21:15 | 42.10259 | -82.79605 | 34790 ft | 491 kts | 103° |
| 2026-04-23 21:16 | 42.08605 | -82.70759 | 35000 ft | 489 kts | 103° |
| 2026-04-23 21:16 | 42.06937 | -82.61883 | 35059 ft | 489 kts | 103° |
| 2026-04-23 21:17 | 42.05267 | -82.53033 | 35085 ft | 488 kts | 103° |
| 2026-04-23 21:17 | 42.03589 | -82.44185 | 35081 ft | 488 kts | 103° |
| 2026-04-23 21:18 | 42.01914 | -82.35389 | 35077 ft | 488 kts | 103° |
| 2026-04-23 21:18 | 42.00210 | -82.26482 | 35077 ft | 488 kts | 103° |
| 2026-04-23 21:19 | 41.98511 | -82.17642 | 35077 ft | 488 kts | 103° |
| 2026-04-23 21:19 | 41.96807 | -82.08818 | 35075 ft | 488 kts | 103° |
| 2026-04-23 21:20 | 41.95109 | -82.00059 | 35077 ft | 488 kts | 103° |
| 2026-04-23 21:20 | 41.93392 | -81.91239 | 35076 ft | 488 kts | 103° |
| 2026-04-23 21:21 | 41.91709 | -81.82389 | 35076 ft | 488 kts | 98° |
| 2026-04-23 21:21 | 41.90835 | -81.73379 | 35079 ft | 486 kts | 94° |
| 2026-04-23 21:22 | 41.90103 | -81.64383 | 35084 ft | 486 kts | 94° |
| 2026-04-23 21:22 | 41.89339 | -81.55423 | 35074 ft | 486 kts | 95° |
| 2026-04-23 21:23 | 41.88532 | -81.46424 | 35072 ft | 486 kts | 95° |
| 2026-04-23 21:23 | 41.87708 | -81.37419 | 35069 ft | 486 kts | 95° |
| 2026-04-23 21:24 | 41.86883 | -81.28475 | 35071 ft | 486 kts | 95° |
| 2026-04-23 21:24 | 41.86045 | -81.19458 | 35072 ft | 486 kts | 95° |
| 2026-04-23 21:25 | 41.85203 | -81.10455 | 35078 ft | 487 kts | 95° |
| 2026-04-23 21:25 | 41.84353 | -81.01450 | 35076 ft | 487 kts | 95° |
| 2026-04-23 21:26 | 41.83490 | -80.92391 | 35080 ft | 487 kts | 95° |
| 2026-04-23 21:26 | 41.82634 | -80.83468 | 35076 ft | 487 kts | 95° |
| 2026-04-23 21:27 | 41.81760 | -80.74445 | 35072 ft | 488 kts | 95° |
| 2026-04-23 21:27 | 41.80881 | -80.65432 | 35082 ft | 488 kts | 95° |
| 2026-04-23 21:28 | 41.79993 | -80.56399 | 35078 ft | 488 kts | 95° |
| 2026-04-23 21:28 | 41.79093 | -80.47377 | 35074 ft | 489 kts | 95° |
| 2026-04-23 21:29 | 41.78189 | -80.38401 | 35081 ft | 489 kts | 95° |
| 2026-04-23 21:29 | 41.77268 | -80.29309 | 35085 ft | 489 kts | 95° |
| 2026-04-23 21:30 | 41.76355 | -80.20361 | 35087 ft | 490 kts | 95° |
| 2026-04-23 21:30 | 41.75423 | -80.11296 | 35078 ft | 490 kts | 95° |
| 2026-04-23 21:31 | 41.74487 | -80.02271 | 35095 ft | 490 kts | 95° |
| 2026-04-23 21:31 | 41.73548 | -79.93277 | 35087 ft | 490 kts | 95° |
| 2026-04-23 21:32 | 41.72596 | -79.84244 | 35084 ft | 491 kts | 95° |
| 2026-04-23 21:32 | 41.71632 | -79.75156 | 35091 ft | 491 kts | 95° |
| 2026-04-23 21:33 | 41.70672 | -79.66173 | 35090 ft | 491 kts | 95° |
| 2026-04-23 21:33 | 41.69697 | -79.57124 | 35087 ft | 491 kts | 95° |
| 2026-04-23 21:34 | 41.68716 | -79.48084 | 35095 ft | 491 kts | 95° |
| 2026-04-23 21:34 | 41.67723 | -79.39007 | 35090 ft | 492 kts | 95° |
| 2026-04-23 21:35 | 41.66731 | -79.29997 | 35082 ft | 492 kts | 95° |
| 2026-04-23 21:35 | 41.65729 | -79.20959 | 35079 ft | 492 kts | 95° |
| 2026-04-23 21:36 | 41.64215 | -79.07403 | 35079 ft | 492 kts | 95° |
| 2026-04-23 21:37 | 41.63200 | -78.98369 | 35079 ft | 492 kts | 95° |
| 2026-04-23 21:37 | 41.62170 | -78.89271 | 35084 ft | 492 kts | 95° |
| 2026-04-23 21:38 | 41.61138 | -78.80226 | 35083 ft | 492 kts | 95° |
| 2026-04-23 21:38 | 41.60110 | -78.71273 | 35086 ft | 492 kts | 95° |
| 2026-04-23 21:39 | 41.59066 | -78.62251 | 35088 ft | 492 kts | 95° |
| 2026-04-23 21:39 | 41.58015 | -78.53223 | 35088 ft | 492 kts | 95° |
| 2026-04-23 21:40 | 41.56958 | -78.44213 | 35082 ft | 492 kts | 95° |
| 2026-04-23 21:40 | 41.55888 | -78.35161 | 35077 ft | 493 kts | 95° |
| 2026-04-23 21:41 | 41.54816 | -78.26146 | 35081 ft | 493 kts | 95° |
| 2026-04-23 21:41 | 41.53730 | -78.17076 | 35082 ft | 493 kts | 95° |
| 2026-04-23 21:42 | 41.52647 | -78.08095 | 35073 ft | 494 kts | 95° |
| 2026-04-23 21:42 | 41.51551 | -77.99062 | 35079 ft | 495 kts | 95° |
| 2026-04-23 21:43 | 41.50370 | -77.90005 | 35063 ft | 496 kts | 96° |
| 2026-04-23 21:43 | 41.49065 | -77.80961 | 35052 ft | 497 kts | 97° |
| 2026-04-23 21:44 | 41.47751 | -77.71919 | 35050 ft | 497 kts | 96° |
| 2026-04-23 21:44 | 41.46447 | -77.62862 | 35052 ft | 497 kts | 96° |
| 2026-04-23 21:45 | 41.45146 | -77.53820 | 35052 ft | 497 kts | 96° |
| 2026-04-23 21:45 | 41.43842 | -77.44777 | 35046 ft | 496 kts | 96° |
| 2026-04-23 21:46 | 41.42522 | -77.35748 | 35044 ft | 497 kts | 96° |
| 2026-04-23 21:46 | 41.41207 | -77.26769 | 35034 ft | 498 kts | 96° |
| 2026-04-23 21:47 | 41.39871 | -77.17701 | 35037 ft | 498 kts | 96° |
| 2026-04-23 21:47 | 41.38530 | -77.08647 | 35025 ft | 499 kts | 97° |
| 2026-04-23 21:48 | 41.37187 | -76.99635 | 35023 ft | 500 kts | 96° |
| 2026-04-23 21:48 | 41.35826 | -76.90554 | 35023 ft | 500 kts | 96° |
| 2026-04-23 21:49 | 41.34466 | -76.81521 | 35007 ft | 496 kts | 96° |
| 2026-04-23 21:49 | 41.32811 | -76.72560 | 35015 ft | 496 kts | 104° |
| 2026-04-23 21:50 | 41.30434 | -76.64010 | 35036 ft | 496 kts | 107° |
| 2026-04-23 21:50 | 41.27988 | -76.55450 | 35034 ft | 496 kts | 106° |
| 2026-04-23 21:51 | 41.25644 | -76.46863 | 35043 ft | 497 kts | 105° |
| 2026-04-23 21:51 | 41.23321 | -76.38209 | 35035 ft | 497 kts | 105° |
| 2026-04-23 21:52 | 41.20978 | -76.29523 | 35050 ft | 498 kts | 106° |
| 2026-04-23 21:52 | 41.18649 | -76.20945 | 35062 ft | 499 kts | 106° |
| 2026-04-23 21:53 | 41.16294 | -76.12305 | 35081 ft | 499 kts | 106° |
| 2026-04-23 21:53 | 41.13917 | -76.03616 | 35083 ft | 501 kts | 106° |
| 2026-04-23 21:54 | 41.11537 | -75.94951 | 35080 ft | 502 kts | 106° |
| 2026-04-23 21:54 | 41.09129 | -75.86216 | 35074 ft | 503 kts | 106° |
| 2026-04-23 21:55 | 41.06718 | -75.77494 | 35075 ft | 504 kts | 106° |
| 2026-04-23 21:55 | 41.05505 | -75.73109 | 34532 ft | 515 kts | 106° |
| 2026-04-23 21:55 | 41.04271 | -75.68657 | 33703 ft | 521 kts | 106° |
| 2026-04-23 21:55 | 41.03000 | -75.64090 | 32876 ft | 523 kts | 106° |
| 2026-04-23 21:56 | 41.01759 | -75.59640 | 32078 ft | 524 kts | 106° |
| 2026-04-23 21:56 | 41.00495 | -75.55114 | 31296 ft | 524 kts | 105° |
| 2026-04-23 21:56 | 40.99227 | -75.50582 | 30532 ft | 524 kts | 105° |
| 2026-04-23 21:56 | 40.97960 | -75.46059 | 29705 ft | 523 kts | 105° |
| 2026-04-23 21:57 | 40.96702 | -75.41572 | 28840 ft | 522 kts | 106° |
| 2026-04-23 21:57 | 40.95428 | -75.37034 | 27993 ft | 522 kts | 106° |
| 2026-04-23 21:57 | 40.94164 | -75.32540 | 27200 ft | 522 kts | 106° |
| 2026-04-23 21:57 | 40.92902 | -75.28062 | 26441 ft | 520 kts | 107° |
| 2026-04-23 21:58 | 40.91647 | -75.23618 | 25687 ft | 511 kts | 107° |
| 2026-04-23 21:58 | 40.90398 | -75.19204 | 24939 ft | 503 kts | 107° |
| 2026-04-23 21:58 | 40.89204 | -75.14985 | 24247 ft | 496 kts | 107° |
| 2026-04-23 21:58 | 40.87995 | -75.10722 | 23548 ft | 489 kts | 108° |
| 2026-04-23 21:59 | 40.86811 | -75.06541 | 22735 ft | 482 kts | 108° |
| 2026-04-23 21:59 | 40.85663 | -75.02472 | 21963 ft | 476 kts | 107° |
| 2026-04-23 21:59 | 40.84501 | -74.98348 | 21167 ft | 470 kts | 108° |
| 2026-04-23 22:00 | 40.82252 | -74.90349 | 19686 ft | 460 kts | 107° |
| 2026-04-23 22:00 | 40.81236 | -74.86406 | 18975 ft | 454 kts | 105° |
| 2026-04-23 22:00 | 40.80299 | -74.82459 | 18286 ft | 448 kts | 104° |
| 2026-04-23 22:00 | 40.79396 | -74.78534 | 17492 ft | 443 kts | 104° |
| 2026-04-23 22:01 | 40.78496 | -74.74650 | 16717 ft | 438 kts | 103° |
| 2026-04-23 22:01 | 40.77644 | -74.70854 | 15958 ft | 432 kts | 102° |
| 2026-04-23 22:01 | 40.76789 | -74.67123 | 15502 ft | 421 kts | 103° |
| 2026-04-23 22:01 | 40.75996 | -74.63527 | 15293 ft | 403 kts | 101° |
| 2026-04-23 22:02 | 40.75270 | -74.59954 | 14719 ft | 398 kts | 100° |
| 2026-04-23 22:02 | 40.74581 | -74.56473 | 14217 ft | 391 kts | 100° |
| 2026-04-23 22:02 | 40.73879 | -74.53020 | 13693 ft | 385 kts | 100° |
| 2026-04-23 22:02 | 40.73189 | -74.49636 | 13114 ft | 379 kts | 101° |
| 2026-04-23 22:03 | 40.72477 | -74.46299 | 12549 ft | 374 kts | 102° |
| 2026-04-23 22:03 | 40.71752 | -74.43060 | 11985 ft | 370 kts | 102° |
| 2026-04-23 22:03 | 40.70983 | -74.39811 | 11441 ft | 366 kts | 104° |
| 2026-04-23 22:03 | 40.70200 | -74.36641 | 10900 ft | 363 kts | 104° |
| 2026-04-23 22:04 | 40.69416 | -74.33579 | 10361 ft | 360 kts | 105° |
| 2026-04-23 22:04 | 40.68597 | -74.30456 | 9842 ft | 357 kts | 105° |
| 2026-04-23 22:04 | 40.67773 | -74.27385 | 9253 ft | 354 kts | 107° |
| 2026-04-23 22:04 | 40.66931 | -74.24396 | 8707 ft | 351 kts | 108° |
| 2026-04-23 22:05 | 40.66036 | -74.21382 | 8137 ft | 347 kts | 110° |
| 2026-04-23 22:05 | 40.65119 | -74.18468 | 7597 ft | 344 kts | 111° |
| 2026-04-23 22:05 | 40.64171 | -74.15592 | 7168 ft | 336 kts | 112° |
| 2026-04-23 22:05 | 40.63266 | -74.12887 | 7039 ft | 319 kts | 111° |
| 2026-04-23 22:06 | 40.62423 | -74.10238 | 7026 ft | 297 kts | 110° |
| 2026-04-23 22:06 | 40.61700 | -74.07787 | 7020 ft | 291 kts | 108° |
| 2026-04-23 22:06 | 40.61043 | -74.05390 | 7023 ft | 291 kts | 107° |
| 2026-04-23 22:06 | 40.60390 | -74.02870 | 7028 ft | 288 kts | 106° |
| 2026-04-23 22:07 | 40.59788 | -74.00453 | 6994 ft | 268 kts | 105° |
| 2026-04-23 22:07 | 40.59254 | -73.98204 | 6979 ft | 254 kts | 104° |
| 2026-04-23 22:07 | 40.58751 | -73.95983 | 7002 ft | 250 kts | 103° |
| 2026-04-23 22:07 | 40.58282 | -73.93778 | 7023 ft | 252 kts | 102° |
| 2026-04-23 22:08 | 40.57811 | -73.91560 | 7021 ft | 247 kts | 102° |
| 2026-04-23 22:08 | 40.57353 | -73.89417 | 6997 ft | 245 kts | 103° |
| 2026-04-23 22:08 | 40.56847 | -73.87252 | 7021 ft | 248 kts | 104° |
| 2026-04-23 22:08 | 40.56338 | -73.85087 | 6999 ft | 248 kts | 104° |
| 2026-04-23 22:09 | 40.55822 | -73.82929 | 7004 ft | 246 kts | 105° |
| 2026-04-23 22:09 | 40.55306 | -73.80795 | 7023 ft | 248 kts | 104° |
| 2026-04-23 22:09 | 40.54770 | -73.78603 | 6936 ft | 250 kts | 105° |
| 2026-04-23 22:09 | 40.54188 | -73.76399 | 6364 ft | 261 kts | 110° |
| 2026-04-23 22:10 | 40.53489 | -73.74247 | 6148 ft | 248 kts | 111° |
| 2026-04-23 22:10 | 40.52862 | -73.72229 | 5986 ft | 241 kts | 109° |
| 2026-04-23 22:10 | 40.52305 | -73.70193 | 5783 ft | 229 kts | 106° |
| 2026-04-23 22:10 | 40.51853 | -73.68283 | 5649 ft | 211 kts | 103° |
| 2026-04-23 22:11 | 40.51468 | -73.66460 | 5398 ft | 202 kts | 103° |
| 2026-04-23 22:11 | 40.51077 | -73.64723 | 5146 ft | 197 kts | 104° |
| 2026-04-23 22:11 | 40.50540 | -73.63073 | 4847 ft | 198 kts | 133° |
| 2026-04-23 22:11 | 40.49358 | -73.62321 | 4594 ft | 190 kts | 186° |
| 2026-04-23 22:12 | 40.48164 | -73.62829 | 4396 ft | 179 kts | 220° |
| 2026-04-23 22:12 | 40.47354 | -73.63988 | 4134 ft | 173 kts | 251° |
| 2026-04-23 22:12 | 40.47115 | -73.65466 | 3893 ft | 165 kts | 275° |
| 2026-04-23 22:12 | 40.47194 | -73.66971 | 3634 ft | 162 kts | 279° |
| 2026-04-23 22:13 | 40.47301 | -73.68420 | 3383 ft | 160 kts | 279° |
| 2026-04-23 22:13 | 40.47411 | -73.69875 | 3135 ft | 161 kts | 279° |
| 2026-04-23 22:13 | 40.47521 | -73.71334 | 3037 ft | 163 kts | 279° |
| 2026-04-23 22:13 | 40.47610 | -73.72807 | 2982 ft | 162 kts | 276° |
| 2026-04-23 22:14 | 40.47638 | -73.74288 | 2992 ft | 162 kts | 275° |
| 2026-04-23 22:14 | 40.47659 | -73.75768 | 2990 ft | 163 kts | 275° |
| 2026-04-23 22:14 | 40.47681 | -73.77264 | 2978 ft | 162 kts | 275° |
| 2026-04-23 22:14 | 40.47703 | -73.78740 | 2970 ft | 161 kts | 275° |
| 2026-04-23 22:15 | 40.47725 | -73.80209 | 2970 ft | 161 kts | 275° |
| 2026-04-23 22:15 | 40.47747 | -73.81650 | 2978 ft | 160 kts | 275° |
| 2026-04-23 22:15 | 40.47770 | -73.83118 | 2985 ft | 160 kts | 275° |
| 2026-04-23 22:15 | 40.47794 | -73.84580 | 2989 ft | 161 kts | 275° |
| 2026-04-23 22:16 | 40.47817 | -73.86051 | 2990 ft | 162 kts | 275° |
| 2026-04-23 22:16 | 40.47841 | -73.87543 | 2988 ft | 163 kts | 275° |
| 2026-04-23 22:16 | 40.47865 | -73.89041 | 2992 ft | 164 kts | 275° |
| 2026-04-23 22:16 | 40.47890 | -73.90535 | 2990 ft | 165 kts | 274° |
| 2026-04-23 22:17 | 40.47913 | -73.92016 | 2979 ft | 165 kts | 274° |
| 2026-04-23 22:17 | 40.47938 | -73.93552 | 2974 ft | 165 kts | 274° |
| 2026-04-23 22:17 | 40.47961 | -73.95044 | 2981 ft | 164 kts | 274° |
| 2026-04-23 22:17 | 40.47985 | -73.96543 | 2980 ft | 163 kts | 274° |
| 2026-04-23 22:18 | 40.48004 | -73.97755 | 2978 ft | 163 kts | 274° |
| 2026-04-23 22:52 | 40.48009 | -73.98068 | 2950 ft | 163 kts | 272° |
| 2026-04-23 22:52 | 40.48032 | -73.99545 | 2979 ft | 160 kts | 272° |
| 2026-04-23 22:53 | 40.48055 | -74.00996 | 2971 ft | 159 kts | 272° |
| 2026-04-23 22:53 | 40.48078 | -74.02451 | 2983 ft | 159 kts | 272° |
| 2026-04-23 22:53 | 40.48100 | -74.03897 | 2983 ft | 160 kts | 272° |
| 2026-04-23 22:53 | 40.48122 | -74.05368 | 2976 ft | 160 kts | 272° |
| 2026-04-23 22:54 | 40.48144 | -74.06825 | 2978 ft | 161 kts | 272° |
| 2026-04-23 22:54 | 40.48167 | -74.08292 | 2984 ft | 160 kts | 272° |
| 2026-04-23 22:54 | 40.48188 | -74.09745 | 2983 ft | 161 kts | 272° |
| 2026-04-23 22:54 | 40.48210 | -74.11217 | 2991 ft | 162 kts | 272° |
| 2026-04-23 22:55 | 40.48232 | -74.12690 | 2980 ft | 162 kts | 271° |
| 2026-04-23 22:55 | 40.48253 | -74.14159 | 2974 ft | 162 kts | 271° |
| 2026-04-23 22:55 | 40.48274 | -74.15618 | 2986 ft | 161 kts | 272° |
| 2026-04-23 22:55 | 40.48295 | -74.17090 | 2978 ft | 161 kts | 272° |
| 2026-04-23 22:56 | 40.48317 | -74.18542 | 2970 ft | 160 kts | 272° |
| 2026-04-23 22:56 | 40.48337 | -74.20005 | 2976 ft | 159 kts | 272° |
| 2026-04-23 22:56 | 40.48357 | -74.21434 | 2973 ft | 158 kts | 272° |
| 2026-04-23 22:56 | 40.48377 | -74.22874 | 2976 ft | 158 kts | 271° |
| 2026-04-23 22:57 | 40.48396 | -74.24301 | 2973 ft | 157 kts | 271° |
| 2026-04-23 22:57 | 40.48416 | -74.25738 | 2976 ft | 157 kts | 271° |
| 2026-04-23 22:57 | 40.48435 | -74.27166 | 2983 ft | 156 kts | 272° |
| 2026-04-23 22:57 | 40.48514 | -74.28584 | 2957 ft | 157 kts | 287° |
| 2026-04-23 22:58 | 40.49202 | -74.29652 | 2990 ft | 162 kts | 328° |
| 2026-04-23 22:58 | 40.50320 | -74.29850 | 2984 ft | 172 kts | 11° |
| 2026-04-23 22:58 | 40.51275 | -74.28927 | 2977 ft | 180 kts | 56° |
| 2026-04-23 22:58 | 40.52050 | -74.27609 | 2962 ft | 181 kts | 33° |
| 2026-04-23 22:59 | 40.53080 | -74.26682 | 2967 ft | 179 kts | 23° |
| 2026-04-23 22:59 | 40.54158 | -74.25991 | 2977 ft | 173 kts | 21° |
| 2026-04-23 22:59 | 40.55270 | -74.25306 | 2666 ft | 175 kts | 22° |
| 2026-04-23 22:59 | 40.56354 | -74.24631 | 2709 ft | 175 kts | 22° |
| 2026-04-23 23:00 | 40.57452 | -74.23945 | 2708 ft | 174 kts | 22° |
| 2026-04-23 23:00 | 40.58533 | -74.23267 | 2556 ft | 169 kts | 22° |
| 2026-04-23 23:00 | 40.59573 | -74.22614 | 2167 ft | 164 kts | 23° |
| 2026-04-23 23:00 | 40.60593 | -74.21972 | 1646 ft | 162 kts | 25° |
| 2026-04-23 23:01 | 40.61601 | -74.21334 | 1345 ft | 162 kts | 25° |
| 2026-04-23 23:01 | 40.62604 | -74.20653 | 1245 ft | 165 kts | 29° |
| 2026-04-23 23:01 | 40.63646 | -74.19957 | 911 ft | 170 kts | 24° |
| 2026-04-23 23:01 | 40.64732 | -74.19318 | 701 ft | 168 kts | 23° |
| 2026-04-23 23:02 | 40.65727 | -74.18641 | 448 ft | 161 kts | 23° |
| 2026-04-23 23:02 | 40.66721 | -74.18002 | 206 ft | 155 kts | 18° |
| 2026-04-23 23:02 | 40.67653 | -74.17419 | 51 ft | 144 kts | 20° |
| 2026-04-23 23:02 | 40.68511 | -74.16943 | 19 ft | 120 kts | 25° |
| 2026-04-23 23:03 | 40.68948 | -74.16670 | 20 ft | 45 kts | 25° |
| 2026-04-23 23:03 | 40.69114 | -74.16564 | 22 ft | 11 kts | 25° |
| 2026-04-23 23:03 | 40.69173 | -74.16527 | 23 ft | 8 kts | 25° |
| 2026-04-23 23:03 | 40.69217 | -74.16501 | 23 ft | 6 kts | 23° |
| 2026-04-23 23:04 | 40.69247 | -74.16484 | 23 ft | 0 kts | 24° |
| 2026-04-23 23:04 | 40.69248 | -74.16484 | 23 ft | 1 kts | 23° |
| 2026-04-23 23:04 | 40.69290 | -74.16464 | 24 ft | 13 kts | 11° |
| 2026-04-23 23:04 | 40.69370 | -74.16450 | 26 ft | 10 kts | 360° |
| 2026-04-23 23:05 | 40.69414 | -74.16454 | 28 ft | 0 kts | 356° |
| 2026-04-23 23:07 | 40.69415 | -74.16454 | 28 ft | 1 kts | 356° |
| 2026-04-23 23:07 | 40.69421 | -74.16454 | 27 ft | 1 kts | 356° |
| 2026-04-23 23:07 | 40.69443 | -74.16456 | 25 ft | 5 kts | 356° |
| 2026-04-23 23:07 | 40.69495 | -74.16544 | 24 ft | 12 kts | 258° |
| 2026-04-23 23:08 | 40.69467 | -74.16585 | 21 ft | 0 kts | 197° |
| 2026-04-23 23:08 | 40.69464 | -74.16586 | 21 ft | 1 kts | 196° |
| 2026-04-23 23:08 | 40.69425 | -74.16598 | 21 ft | 6 kts | 193° |
| 2026-04-23 23:08 | 40.69386 | -74.16613 | 22 ft | 6 kts | 201° |
| 2026-04-23 23:09 | 40.69348 | -74.16635 | 22 ft | 6 kts | 204° |
| 2026-04-23 23:09 | 40.69310 | -74.16657 | 23 ft | 6 kts | 203° |
| 2026-04-23 23:09 | 40.69291 | -74.16667 | 25 ft | 0 kts | 203° |
| 2026-04-23 23:09 | 40.69289 | -74.16668 | 25 ft | 1 kts | 203° |
| 2026-04-23 23:10 | 40.69273 | -74.16679 | 24 ft | 12 kts | 207° |
| 2026-04-23 23:10 | 40.69178 | -74.16743 | 22 ft | 20 kts | 206° |
| 2026-04-23 23:10 | 40.69103 | -74.16791 | 21 ft | 0 kts | 205° |
| 2026-04-23 23:10 | 40.69061 | -74.16817 | 20 ft | 14 kts | 205° |
| 2026-04-23 23:11 | 40.68980 | -74.16869 | 20 ft | 12 kts | 206° |
| 2026-04-23 23:11 | 40.68906 | -74.16916 | 18 ft | 12 kts | 206° |
| 2026-04-23 23:11 | 40.68836 | -74.16962 | 17 ft | 10 kts | 206° |
| 2026-04-23 23:11 | 40.68785 | -74.16995 | 18 ft | 6 kts | 206° |
| 2026-04-23 23:12 | 40.68770 | -74.17005 | 21 ft | 0 kts | 206° |
| 2026-04-23 23:12 | 40.68768 | -74.17006 | 20 ft | 1 kts | 206° |
| 2026-04-23 23:12 | 40.68765 | -74.17008 | 20 ft | 1 kts | 204° |
| 2026-04-23 23:12 | 40.68761 | -74.17010 | 19 ft | 1 kts | 204° |
| 2026-04-23 23:13 | 40.68716 | -74.17037 | 20 ft | 25 kts | 205° |
| 2026-04-23 23:13 | 40.68578 | -74.17125 | 21 ft | 22 kts | 206° |
| 2026-04-23 23:13 | 40.68450 | -74.17208 | 24 ft | 12 kts | 206° |
| 2026-04-23 23:13 | 40.68311 | -74.17294 | 20 ft | 1 kts | 204° |
| 2026-04-23 23:14 | 40.68308 | -74.17296 | 20 ft | 1 kts | 205° |
| 2026-04-23 23:14 | 40.68278 | -74.17316 | 21 ft | 17 kts | 206° |
| 2026-04-23 23:15 | 40.68210 | -74.17359 | 18 ft | 13 kts | 205° |
| 2026-04-23 23:15 | 40.68156 | -74.17395 | 16 ft | 18 kts | 215° |
| 2026-04-23 23:15 | 40.68162 | -74.17511 | 16 ft | 13 kts | 303° |
| 2026-04-23 23:15 | 40.68213 | -74.17630 | 17 ft | 10 kts | 296° |
| 2026-04-23 23:16 | 40.68274 | -74.17705 | 17 ft | 12 kts | 329° |
| 2026-04-23 23:16 | 40.68329 | -74.17753 | 19 ft | 8 kts | 313° |
| 2026-04-23 23:16 | 40.68352 | -74.17818 | 19 ft | 7 kts | 288° |
| 2026-04-23 23:16 | 40.68367 | -74.17892 | 19 ft | 10 kts | 278° |
| 2026-04-23 23:17 | 40.68359 | -74.17982 | 19 ft | 9 kts | 259° |
| 2026-04-23 23:17 | 40.68377 | -74.18049 | 18 ft | 8 kts | 322° |
| 2026-04-23 23:17 | 40.68415 | -74.18064 | 18 ft | 0 kts | 349° |
| 2026-04-23 23:18 | 40.68418 | -74.18065 | 18 ft | 1 kts | 349° |
| 2026-04-23 23:18 | 40.68428 | -74.18067 | 18 ft | 4 kts | 349° |
| 2026-04-23 23:18 | 40.68471 | -74.18118 | 19 ft | 15 kts | 282° |
| 2026-04-23 23:18 | 40.68481 | -74.18259 | 18 ft | 10 kts | 278° |
| 2026-04-23 23:19 | 40.68492 | -74.18335 | 20 ft | 7 kts | 284° |
| 2026-04-23 23:19 | 40.68500 | -74.18372 | 19 ft | 0 kts | 285° |
| 2026-04-23 23:19 | 40.68501 | -74.18374 | 18 ft | 0 kts | 285° |
| 2026-04-23 23:19 | 40.68501 | -74.18376 | 18 ft | 0 kts | 289° |
| 2026-04-23 23:20 | 40.68502 | -74.18378 | 18 ft | 0 kts | 288° |
| 2026-04-23 23:20 | 40.68503 | -74.18382 | 18 ft | 0 kts | 289° |
| 2026-04-23 23:20 | 40.68504 | -74.18385 | 19 ft | 1 kts | 288° |
| 2026-04-23 23:20 | 40.68505 | -74.18390 | 19 ft | 1 kts | 288° |
| 2026-04-23 23:21 | 40.68507 | -74.18396 | 20 ft | 2 kts | 292° |
| 2026-04-23 23:21 | 40.68514 | -74.18418 | 20 ft | 4 kts | 295° |
| 2026-04-23 23:21 | 40.68539 | -74.18523 | 21 ft | 21 kts | 289° |
| 2026-04-23 23:21 | 40.68603 | -74.18642 | 21 ft | 10 kts | 316° |
| 2026-04-23 23:22 | 40.68645 | -74.18694 | 20 ft | 6 kts | 317° |
| 2026-04-23 23:22 | 40.68662 | -74.18710 | 20 ft | 1 kts | 330° |
| 2026-04-23 23:22 | 40.68669 | -74.18713 | 20 ft | 1 kts | 343° |
| 2026-04-23 23:22 | 40.68673 | -74.18715 | 20 ft | 2 kts | 345° |
| 2026-04-23 23:23 | 40.68702 | -74.18721 | 20 ft | 11 kts | 0° |
| 2026-04-23 23:23 | 40.68711 | -74.18717 | 20 ft | 0 kts | 25° |
| 2026-04-23 23:23 | 40.68713 | -74.18716 | 20 ft | 3 kts | 25° |
| 2026-04-23 23:23 | 40.68740 | -74.18696 | 20 ft | 17 kts | 31° |
| 2026-04-23 23:24 | 40.68777 | -74.18617 | 19 ft | 3 kts | 77° |
| 2026-04-23 23:24 | 40.68799 | -74.18588 | 21 ft | 0 kts | 4° |
| 2026-04-23 23:24 | 40.68801 | -74.18591 | 21 ft | 0 kts | 323° |
| 2026-04-23 23:24 | 40.68801 | -74.18595 | 19 ft | 0 kts | 296° |
| 2026-04-23 23:25 | 40.68801 | -74.18597 | 19 ft | 0 kts | 291° |
| 2026-04-23 23:25 | 40.68803 | -74.18601 | 19 ft | 1 kts | 291° |
| 2026-04-23 23:25 | 40.68805 | -74.18609 | 20 ft | 1 kts | 291° |
| 2026-04-23 23:25 | 40.68806 | -74.18614 | 20 ft | 1 kts | 284° |
| 2026-04-23 23:26 | 40.68805 | -74.18618 | 21 ft | 1 kts | 261° |
| 2026-04-23 23:26 | 40.68801 | -74.18619 | 21 ft | 0 kts | 213° |
| 2026-04-23 23:26 | 40.68798 | -74.18617 | 21 ft | 0 kts | 166° |
| 2026-04-23 23:26 | 40.68796 | -74.18614 | 21 ft | 0 kts | 155° |
| 2026-04-23 23:27 | 40.68794 | -74.18613 | 21 ft | 1 kts | 155° |
| 2026-04-23 23:27 | 40.68791 | -74.18611 | 20 ft | 1 kts | 155° |
| 2026-04-23 23:27 | 40.68788 | -74.18610 | 21 ft | 1 kts | 155° |
| 2026-04-23 23:27 | 40.68786 | -74.18608 | 21 ft | 1 kts | 154° |
| 2026-04-23 23:28 | 40.68784 | -74.18607 | 21 ft | 0 kts | 153° |
| 2026-04-23 23:28 | 40.68781 | -74.18605 | 22 ft | 0 kts | 153° |
| 2026-04-23 23:28 | 40.68779 | -74.18604 | 22 ft | 0 kts | 153° |
| 2026-04-23 23:28 | 40.68777 | -74.18602 | 21 ft | 0 kts | 153° |
| 2026-04-23 23:29 | 40.68774 | -74.18600 | 21 ft | 1 kts | 153° |
| 2026-04-23 23:29 | 40.68772 | -74.18599 | 20 ft | 1 kts | 153° |
| 2026-04-23 23:29 | 40.68763 | -74.18593 | 21 ft | 3 kts | 153° |
| 2026-04-23 23:29 | 40.68754 | -74.18587 | 21 ft | 1 kts | 153° |